sensor_id;sensor_type;location;lat;lon;timestamp;pressure;altitude;pressure_sealevel;temperature;humidity
36222;BME280;22266;52.340;4.962;2023-04-01T00:01:22;98964.94;;;10.47;86.41
36222;BME280;22266;52.340;4.962;2023-04-01T00:03:48;98962.97;;;10.43;86.36
36222;BME280;22266;52.340;4.962;2023-04-01T00:06:17;98957.72;;;10.36;86.45
36222;BME280;22266;52.340;4.962;2023-04-01T00:08:45;98967.75;;;10.40;86.92
36222;BME280;22266;52.340;4.962;2023-04-01T00:11:13;98965.06;;;10.40;86.49
36222;BME280;22266;52.340;4.962;2023-04-01T00:13:40;98966.72;;;10.42;86.52
36222;BME280;22266;52.340;4.962;2023-04-01T00:16:07;98972.66;;;10.44;86.65
36222;BME280;22266;52.340;4.962;2023-04-01T00:18:46;98975.94;;;10.46;86.71
36222;BME280;22266;52.340;4.962;2023-04-01T00:21:17;98973.81;;;10.48;86.57
36222;BME280;22266;52.340;4.962;2023-04-01T00:23:43;98975.34;;;10.44;86.38
36222;BME280;22266;52.340;4.962;2023-04-01T00:26:10;98971.25;;;10.41;86.58
36222;BME280;22266;52.340;4.962;2023-04-01T00:28:38;98976.97;;;10.45;86.75
36222;BME280;22266;52.340;4.962;2023-04-01T00:31:06;98980.72;;;10.44;86.44
36222;BME280;22266;52.340;4.962;2023-04-01T00:33:33;98982.25;;;10.39;86.18
36222;BME280;22266;52.340;4.962;2023-04-01T00:36:29;98976.53;;;10.36;86.54
36222;BME280;22266;52.340;4.962;2023-04-01T00:38:57;98977.59;;;10.35;86.72
36222;BME280;22266;52.340;4.962;2023-04-01T00:41:25;98985.41;;;10.36;86.78
36222;BME280;22266;52.340;4.962;2023-04-01T00:43:52;98980.63;;;10.38;86.29
36222;BME280;22266;52.340;4.962;2023-04-01T00:46:20;98978.66;;;10.34;86.43
36222;BME280;22266;52.340;4.962;2023-04-01T00:48:51;98980.53;;;10.33;86.22
36222;BME280;22266;52.340;4.962;2023-04-01T00:51:25;98981.34;;;10.34;86.62
36222;BME280;22266;52.340;4.962;2023-04-01T00:53:56;98988.34;;;10.35;86.34
36222;BME280;22266;52.340;4.962;2023-04-01T00:56:47;98986.94;;;10.32;86.15
36222;BME280;22266;52.340;4.962;2023-04-01T00:59:24;98984.75;;;10.29;85.90
36222;BME280;22266;52.340;4.962;2023-04-01T01:01:51;98984.75;;;10.29;86.32
36222;BME280;22266;52.340;4.962;2023-04-01T01:04:36;98989.97;;;10.24;86.31
36222;BME280;22266;52.340;4.962;2023-04-01T01:10:06;98991.50;;;10.20;86.84
36222;BME280;22266;52.340;4.962;2023-04-01T01:12:40;98991.50;;;10.20;86.22
36222;BME280;22266;52.340;4.962;2023-04-01T01:15:25;98998.53;;;10.21;86.51
36222;BME280;22266;52.340;4.962;2023-04-01T01:26:27;98994.19;;;10.20;86.69
36222;BME280;22266;52.340;4.962;2023-04-01T01:37:19;99001.69;;;10.18;86.28
36222;BME280;22266;52.340;4.962;2023-04-01T01:39:56;99004.94;;;10.20;86.53
36222;BME280;22266;52.340;4.962;2023-04-01T01:42:26;99007.63;;;10.20;86.69
36222;BME280;22266;52.340;4.962;2023-04-01T01:44:56;99016.19;;;10.17;86.89
36222;BME280;22266;52.340;4.962;2023-04-01T01:47:24;99022.03;;;10.14;86.50
36222;BME280;22266;52.340;4.962;2023-04-01T01:49:53;99012.66;;;10.16;86.92
36222;BME280;22266;52.340;4.962;2023-04-01T01:52:22;99012.00;;;10.21;87.22
36222;BME280;22266;52.340;4.962;2023-04-01T01:54:52;99030.81;;;10.21;86.86
36222;BME280;22266;52.340;4.962;2023-04-01T01:57:42;99030.31;;;10.24;86.76
36222;BME280;22266;52.340;4.962;2023-04-01T02:00:15;99027.63;;;10.24;86.50
36222;BME280;22266;52.340;4.962;2023-04-01T02:02:45;99024.38;;;10.22;86.65
36222;BME280;22266;52.340;4.962;2023-04-01T02:05:19;99036.19;;;10.21;86.79
36222;BME280;22266;52.340;4.962;2023-04-01T02:08:14;99044.47;;;10.20;86.67
36222;BME280;22266;52.340;4.962;2023-04-01T02:10:43;99041.56;;;10.21;87.08
36222;BME280;22266;52.340;4.962;2023-04-01T02:13:21;99048.22;;;10.19;86.76
36222;BME280;22266;52.340;4.962;2023-04-01T02:15:51;99057.81;;;10.14;86.58
36222;BME280;22266;52.340;4.962;2023-04-01T02:18:22;99054.31;;;10.14;86.98
36222;BME280;22266;52.340;4.962;2023-04-01T02:20:49;99058.63;;;10.15;86.96
36222;BME280;22266;52.340;4.962;2023-04-01T02:23:15;99057.47;;;10.11;86.78
36222;BME280;22266;52.340;4.962;2023-04-01T02:25:43;99066.34;;;10.11;87.01
36222;BME280;22266;52.340;4.962;2023-04-01T02:28:12;99066.59;;;10.10;87.30
36222;BME280;22266;52.340;4.962;2023-04-01T02:30:41;99068.22;;;10.11;87.27
36222;BME280;22266;52.340;4.962;2023-04-01T02:33:09;99075.56;;;10.15;87.80
36222;BME280;22266;52.340;4.962;2023-04-01T02:35:36;99084.00;;;10.19;87.27
36222;BME280;22266;52.340;4.962;2023-04-01T02:38:04;99084.81;;;10.20;86.91
36222;BME280;22266;52.340;4.962;2023-04-01T02:40:42;99080.03;;;10.22;87.31
36222;BME280;22266;52.340;4.962;2023-04-01T02:43:09;99080.84;;;10.22;87.56
36222;BME280;22266;52.340;4.962;2023-04-01T02:45:36;99086.34;;;10.27;87.52
36222;BME280;22266;52.340;4.962;2023-04-01T02:48:02;99092.78;;;10.26;87.56
36222;BME280;22266;52.340;4.962;2023-04-01T02:50:29;99097.72;;;10.29;87.76
36222;BME280;22266;52.340;4.962;2023-04-01T02:52:55;99106.34;;;10.31;87.11
36222;BME280;22266;52.340;4.962;2023-04-01T02:55:22;99107.97;;;10.32;87.08
36222;BME280;22266;52.340;4.962;2023-04-01T02:57:48;99105.28;;;10.32;86.91
36222;BME280;22266;52.340;4.962;2023-04-01T03:00:16;99111.25;;;10.34;87.38
36222;BME280;22266;52.340;4.962;2023-04-01T03:02:42;99115.00;;;10.33;87.21
36222;BME280;22266;52.340;4.962;2023-04-01T03:05:10;99115.47;;;10.30;86.91
36222;BME280;22266;52.340;4.962;2023-04-01T03:07:37;99125.63;;;10.28;87.03
36222;BME280;22266;52.340;4.962;2023-04-01T03:10:04;99110.81;;;10.26;86.99
36222;BME280;22266;52.340;4.962;2023-04-01T03:12:31;99132.75;;;10.23;87.53
36222;BME280;22266;52.340;4.962;2023-04-01T03:14:57;99123.44;;;10.25;87.67
36222;BME280;22266;52.340;4.962;2023-04-01T03:17:37;99134.19;;;10.25;87.65
36222;BME280;22266;52.340;4.962;2023-04-01T03:20:03;99144.56;;;10.22;88.05
36222;BME280;22266;52.340;4.962;2023-04-01T03:22:31;99147.25;;;10.22;88.30
36222;BME280;22266;52.340;4.962;2023-04-01T03:24:57;99146.66;;;10.20;88.39
36222;BME280;22266;52.340;4.962;2023-04-01T03:27:24;99148.88;;;10.23;88.40
36222;BME280;22266;52.340;4.962;2023-04-01T03:29:50;99160.69;;;10.22;88.33
36222;BME280;22266;52.340;4.962;2023-04-01T03:32:18;99163.38;;;10.22;88.49
36222;BME280;22266;52.340;4.962;2023-04-01T03:34:45;99171.84;;;10.25;88.67
36222;BME280;22266;52.340;4.962;2023-04-01T03:37:11;99185.47;;;10.24;88.58
36222;BME280;22266;52.340;4.962;2023-04-01T03:39:38;99177.41;;;10.24;88.08
36222;BME280;22266;52.340;4.962;2023-04-01T03:42:04;99189.47;;;10.21;88.44
36222;BME280;22266;52.340;4.962;2023-04-01T03:44:33;99186.16;;;10.19;88.84
36222;BME280;22266;52.340;4.962;2023-04-01T03:47:00;99193.66;;;10.17;88.63
36222;BME280;22266;52.340;4.962;2023-04-01T03:49:27;99196.91;;;10.19;89.01
36222;BME280;22266;52.340;4.962;2023-04-01T03:51:54;99201.50;;;10.19;88.24
36222;BME280;22266;52.340;4.962;2023-04-01T03:54:21;99205.44;;;10.16;89.16
36222;BME280;22266;52.340;4.962;2023-04-01T03:56:48;99206.03;;;10.18;88.64
36222;BME280;22266;52.340;4.962;2023-04-01T03:59:14;99219.25;;;10.20;88.77
36222;BME280;22266;52.340;4.962;2023-04-01T04:01:41;99221.47;;;10.23;88.56
36222;BME280;22266;52.340;4.962;2023-04-01T04:04:10;99222.28;;;10.23;88.98
36222;BME280;22266;52.340;4.962;2023-04-01T04:06:38;99219.03;;;10.21;88.71
36222;BME280;22266;52.340;4.962;2023-04-01T04:09:05;99225.81;;;10.24;88.42
36222;BME280;22266;52.340;4.962;2023-04-01T04:11:32;99237.84;;;10.21;88.19
36222;BME280;22266;52.340;4.962;2023-04-01T04:13:59;99237.25;;;10.19;88.48
36222;BME280;22266;52.340;4.962;2023-04-01T04:16:26;99240.75;;;10.20;88.62
36222;BME280;22266;52.340;4.962;2023-04-01T04:18:57;99241.38;;;10.22;88.97
36222;BME280;22266;52.340;4.962;2023-04-01T04:21:24;99248.38;;;10.23;89.04
36222;BME280;22266;52.340;4.962;2023-04-01T04:23:50;99250.25;;;10.22;88.77
36222;BME280;22266;52.340;4.962;2023-04-01T04:26:18;99264.09;;;10.26;89.05
36222;BME280;22266;52.340;4.962;2023-04-01T04:28:54;99257.50;;;10.22;88.35
36222;BME280;22266;52.340;4.962;2023-04-01T04:31:22;99268.47;;;10.20;88.48
36222;BME280;22266;52.340;4.962;2023-04-01T04:33:52;99267.28;;;10.16;88.47
36222;BME280;22266;52.340;4.962;2023-04-01T04:36:19;99270.78;;;10.16;88.48
36222;BME280;22266;52.340;4.962;2023-04-01T04:38:48;99266.47;;;10.15;88.38
36222;BME280;22266;52.340;4.962;2023-04-01T04:41:16;99282.25;;;10.12;88.46
36222;BME280;22266;52.340;4.962;2023-04-01T04:43:55;99284.94;;;10.12;88.46
36222;BME280;22266;52.340;4.962;2023-04-01T04:46:23;99291.38;;;10.11;88.84
36222;BME280;22266;52.340;4.962;2023-04-01T04:48:56;99288.69;;;10.11;88.25
36222;BME280;22266;52.340;4.962;2023-04-01T04:51:23;99297.56;;;10.11;88.97
36222;BME280;22266;52.340;4.962;2023-04-01T04:53:51;99300.25;;;10.11;88.91
36222;BME280;22266;52.340;4.962;2023-04-01T04:56:24;99307.50;;;10.11;88.61
36222;BME280;22266;52.340;4.962;2023-04-01T04:59:07;99308.19;;;10.06;88.91
36222;BME280;22266;52.340;4.962;2023-04-01T05:01:42;99312.28;;;10.09;88.88
36222;BME280;22266;52.340;4.962;2023-04-01T05:04:08;99312.28;;;10.09;89.02
36222;BME280;22266;52.340;4.962;2023-04-01T05:06:35;99320.00;;;10.05;88.60
36222;BME280;22266;52.340;4.962;2023-04-01T05:09:02;99326.19;;;10.06;88.89
36222;BME280;22266;52.340;4.962;2023-04-01T05:11:28;99330.75;;;10.05;88.78
36222;BME280;22266;52.340;4.962;2023-04-01T05:13:55;99331.56;;;10.06;88.79
36222;BME280;22266;52.340;4.962;2023-04-01T05:16:22;99339.25;;;10.02;88.98
36222;BME280;22266;52.340;4.962;2023-04-01T05:18:48;99338.44;;;10.02;88.54
36222;BME280;22266;52.340;4.962;2023-04-01T05:21:15;99337.84;;;10.00;88.43
36222;BME280;22266;52.340;4.962;2023-04-01T05:23:42;99345.09;;;9.99;88.52
36222;BME280;22266;52.340;4.962;2023-04-01T05:26:14;99348.81;;;9.98;88.36
36222;BME280;22266;52.340;4.962;2023-04-01T05:28:41;99350.25;;;10.01;88.62
36222;BME280;22266;52.340;4.962;2023-04-01T05:31:08;99351.28;;;10.00;88.21
36222;BME280;22266;52.340;4.962;2023-04-01T05:33:41;99360.41;;;9.99;88.80
36222;BME280;22266;52.340;4.962;2023-04-01T05:36:13;99366.81;;;9.98;88.46
36222;BME280;22266;52.340;4.962;2023-04-01T05:38:41;99368.31;;;9.94;88.29
36222;BME280;22266;52.340;4.962;2023-04-01T05:41:11;99366.69;;;9.93;88.80
36222;BME280;22266;52.340;4.962;2023-04-01T05:43:42;99366.69;;;9.93;88.93
36222;BME280;22266;52.340;4.962;2023-04-01T05:46:47;99379.66;;;9.96;89.37
36222;BME280;22266;52.340;4.962;2023-04-01T05:49:18;99378.84;;;9.95;89.55
36222;BME280;22266;52.340;4.962;2023-04-01T05:51:44;99388.09;;;9.99;90.15
36222;BME280;22266;52.340;4.962;2023-04-01T05:54:11;99397.34;;;10.03;89.90
36222;BME280;22266;52.340;4.962;2023-04-01T05:56:38;99395.03;;;10.07;89.54
36222;BME280;22266;52.340;4.962;2023-04-01T05:59:05;99396.91;;;10.06;89.46
36222;BME280;22266;52.340;4.962;2023-04-01T06:01:31;99406.03;;;10.05;89.41
36222;BME280;22266;52.340;4.962;2023-04-01T06:03:58;99407.06;;;10.04;89.01
36222;BME280;22266;52.340;4.962;2023-04-01T06:06:30;99412.09;;;10.01;89.56
36222;BME280;22266;52.340;4.962;2023-04-01T06:09:18;99410.03;;;9.96;89.33
36222;BME280;22266;52.340;4.962;2023-04-01T06:14:44;99417.47;;;10.01;90.10
36222;BME280;22266;52.340;4.962;2023-04-01T06:17:41;99431.78;;;9.95;89.15
36222;BME280;22266;52.340;4.962;2023-04-01T06:26:37;99445.66;;;9.91;90.30
36222;BME280;22266;52.340;4.962;2023-04-01T06:34:58;99449.53;;;9.96;90.36
36222;BME280;22266;52.340;4.962;2023-04-01T06:45:41;99473.16;;;9.94;90.54
36222;BME280;22266;52.340;4.962;2023-04-01T06:54:48;99494.28;;;9.90;90.10
36222;BME280;22266;52.340;4.962;2023-04-01T06:57:41;99495.72;;;9.93;90.02
36222;BME280;22266;52.340;4.962;2023-04-01T07:00:15;99498.03;;;9.89;90.19
36222;BME280;22266;52.340;4.962;2023-04-01T07:02:53;99502.13;;;9.91;90.64
36222;BME280;22266;52.340;4.962;2023-04-01T07:05:22;99503.78;;;9.93;90.47
36222;BME280;22266;52.340;4.962;2023-04-01T07:07:52;99504.38;;;9.95;90.46
36222;BME280;22266;52.340;4.962;2023-04-01T07:10:30;99506.91;;;9.89;90.60
36222;BME280;22266;52.340;4.962;2023-04-01T07:13:46;99524.44;;;9.92;90.05
36222;BME280;22266;52.340;4.962;2023-04-01T07:16:35;99526.47;;;9.97;90.76
36222;BME280;22266;52.340;4.962;2023-04-01T07:22:19;99531.56;;;10.05;90.75
36222;BME280;22266;52.340;4.962;2023-04-01T07:25:13;99540.66;;;10.04;89.99
36222;BME280;22266;52.340;4.962;2023-04-01T07:27:45;99543.56;;;10.02;90.38
36222;BME280;22266;52.340;4.962;2023-04-01T07:30:17;99551.88;;;10.01;90.25
36222;BME280;22266;52.340;4.962;2023-04-01T07:32:59;99549.78;;;10.03;90.07
36222;BME280;22266;52.340;4.962;2023-04-01T07:35:40;99556.78;;;10.04;90.15
36222;BME280;22266;52.340;4.962;2023-04-01T07:43:52;99564.56;;;10.12;90.68
36222;BME280;22266;52.340;4.962;2023-04-01T07:46:46;99575.25;;;10.19;90.37
36222;BME280;22266;52.340;4.962;2023-04-01T07:49:31;99571.31;;;10.21;90.13
36222;BME280;22266;52.340;4.962;2023-04-01T07:52:07;99569.44;;;10.22;89.63
36222;BME280;22266;52.340;4.962;2023-04-01T07:55:06;99579.16;;;10.23;89.97
36222;BME280;22266;52.340;4.962;2023-04-01T07:58:01;99589.25;;;10.27;89.56
36222;BME280;22266;52.340;4.962;2023-04-01T08:00:55;99593.81;;;10.27;89.40
36222;BME280;22266;52.340;4.962;2023-04-01T08:06:42;99600.44;;;10.24;89.92
36222;BME280;22266;52.340;4.962;2023-04-01T08:09:31;99601.66;;;10.28;89.53
36222;BME280;22266;52.340;4.962;2023-04-01T08:12:44;99606.59;;;10.31;90.04
36222;BME280;22266;52.340;4.962;2023-04-01T08:15:55;99610.94;;;10.32;89.56
36222;BME280;22266;52.340;4.962;2023-04-01T08:21:23;99619.66;;;10.28;89.72
36222;BME280;22266;52.340;4.962;2023-04-01T08:24:07;99632.13;;;10.22;89.64
36222;BME280;22266;52.340;4.962;2023-04-01T08:26:42;99631.47;;;10.27;89.48
36222;BME280;22266;52.340;4.962;2023-04-01T08:29:26;99630.66;;;10.26;89.76
36222;BME280;22266;52.340;4.962;2023-04-01T08:32:05;99643.06;;;10.27;90.04
36222;BME280;22266;52.340;4.962;2023-04-01T08:34:39;99640.38;;;10.27;90.12
36222;BME280;22266;52.340;4.962;2023-04-01T08:37:28;99646.50;;;10.34;89.74
36222;BME280;22266;52.340;4.962;2023-04-01T08:40:16;99655.84;;;10.32;89.67
36222;BME280;22266;52.340;4.962;2023-04-01T08:43:02;99648.38;;;10.34;89.77
36222;BME280;22266;52.340;4.962;2023-04-01T08:58:30;99671.41;;;10.48;89.77
36222;BME280;22266;52.340;4.962;2023-04-01T09:06:52;99675.38;;;10.46;89.54
36222;BME280;22266;52.340;4.962;2023-04-01T09:15:16;99689.13;;;10.56;89.74
36222;BME280;22266;52.340;4.962;2023-04-01T09:18:06;99696.09;;;10.63;89.82
36222;BME280;22266;52.340;4.962;2023-04-01T09:32:40;99703.97;;;10.83;89.65
36222;BME280;22266;52.340;4.962;2023-04-01T09:40:54;99714.06;;;10.88;89.58
36222;BME280;22266;52.340;4.962;2023-04-01T09:46:57;99729.78;;;10.91;88.83
36222;BME280;22266;52.340;4.962;2023-04-01T09:55:17;99732.75;;;10.83;89.34
36222;BME280;22266;52.340;4.962;2023-04-01T10:13:14;99761.69;;;10.87;89.01
36222;BME280;22266;52.340;4.962;2023-04-01T10:22:31;99774.19;;;11.00;89.13
36222;BME280;22266;52.340;4.962;2023-04-01T10:25:18;99775.16;;;11.06;89.33
36222;BME280;22266;52.340;4.962;2023-04-01T10:36:58;99779.06;;;11.28;89.08
36222;BME280;22266;52.340;4.962;2023-04-01T10:45:58;99785.50;;;11.64;89.40
36222;BME280;22266;52.340;4.962;2023-04-01T10:49:14;99789.75;;;11.72;88.86
36222;BME280;22266;52.340;4.962;2023-04-01T10:52:11;99792.88;;;11.69;87.59
36222;BME280;22266;52.340;4.962;2023-04-01T10:55:35;99789.06;;;11.58;87.26
36222;BME280;22266;52.340;4.962;2023-04-01T10:58:58;99793.75;;;11.51;87.74
36222;BME280;22266;52.340;4.962;2023-04-01T11:34:44;99855.47;;;11.71;86.29
36222;BME280;22266;52.340;4.962;2023-04-01T11:37:41;99847.94;;;11.61;85.99
36222;BME280;22266;52.340;4.962;2023-04-01T11:43:54;99866.94;;;11.66;86.52
36222;BME280;22266;52.340;4.962;2023-04-01T11:52:33;99870.09;;;11.63;86.90
36222;BME280;22266;52.340;4.962;2023-04-01T11:55:19;99878.63;;;11.60;86.21
36222;BME280;22266;52.340;4.962;2023-04-01T12:03:22;99891.38;;;11.71;86.19
36222;BME280;22266;52.340;4.962;2023-04-01T12:06:21;99890.91;;;11.74;86.58
36222;BME280;22266;52.340;4.962;2023-04-01T12:11:50;99900.97;;;11.85;86.04
36222;BME280;22266;52.340;4.962;2023-04-01T12:17:27;99903.22;;;11.88;86.17
36222;BME280;22266;52.340;4.962;2023-04-01T12:25:38;99920.47;;;11.87;85.78
36222;BME280;22266;52.340;4.962;2023-04-01T12:28:25;99928.00;;;11.79;85.63
36222;BME280;22266;52.340;4.962;2023-04-01T12:31:06;99926.31;;;11.78;86.42
36222;BME280;22266;52.340;4.962;2023-04-01T12:39:18;99932.41;;;11.73;86.27
36222;BME280;22266;52.340;4.962;2023-04-01T12:47:13;99947.31;;;11.76;87.25
36222;BME280;22266;52.340;4.962;2023-04-01T12:52:55;99956.44;;;11.75;86.64
36222;BME280;22266;52.340;4.962;2023-04-01T12:55:39;99959.59;;;11.72;87.14
36222;BME280;22266;52.340;4.962;2023-04-01T13:01:30;99964.38;;;11.70;87.41
36222;BME280;22266;52.340;4.962;2023-04-01T13:12:35;99988.53;;;11.58;86.94
36222;BME280;22266;52.340;4.962;2023-04-01T13:15:13;99987.78;;;11.51;87.34
36222;BME280;22266;52.340;4.962;2023-04-01T13:17:53;99986.34;;;11.48;88.02
36222;BME280;22266;52.340;4.962;2023-04-01T13:20:44;99989.03;;;11.48;87.88
36222;BME280;22266;52.340;4.962;2023-04-01T13:23:21;99997.38;;;11.47;87.87
36222;BME280;22266;52.340;4.962;2023-04-01T13:26:12;100001.06;;;11.46;88.26
36222;BME280;22266;52.340;4.962;2023-04-01T13:29:06;100009.56;;;11.49;88.21
36222;BME280;22266;52.340;4.962;2023-04-01T13:36:54;100035.56;;;11.37;88.00
36222;BME280;22266;52.340;4.962;2023-04-01T13:39:32;100031.66;;;11.33;88.14
36222;BME280;22266;52.340;4.962;2023-04-01T13:42:21;100028.75;;;11.34;88.18
36222;BME280;22266;52.340;4.962;2023-04-01T13:45:18;100033.53;;;11.32;88.02
36222;BME280;22266;52.340;4.962;2023-04-01T13:50:34;100045.94;;;11.33;86.95
36222;BME280;22266;52.340;4.962;2023-04-01T13:56:08;100041.66;;;11.26;88.19
36222;BME280;22266;52.340;4.962;2023-04-01T13:58:48;100054.69;;;11.29;88.09
36222;BME280;22266;52.340;4.962;2023-04-01T14:01:41;100060.50;;;11.26;87.38
36222;BME280;22266;52.340;4.962;2023-04-01T14:07:17;100070.56;;;11.12;87.16
36222;BME280;22266;52.340;4.962;2023-04-01T14:13:01;100074.09;;;11.06;87.83
36222;BME280;22266;52.340;4.962;2023-04-01T14:15:39;100078.91;;;11.04;88.37
36222;BME280;22266;52.340;4.962;2023-04-01T14:18:30;100092.38;;;11.04;88.47
36222;BME280;22266;52.340;4.962;2023-04-01T14:24:17;100094.19;;;11.10;88.93
36222;BME280;22266;52.340;4.962;2023-04-01T14:29:51;100106.81;;;11.09;87.99
36222;BME280;22266;52.340;4.962;2023-04-01T14:40:33;100120.75;;;11.00;88.28
36222;BME280;22266;52.340;4.962;2023-04-01T14:48:38;100136.28;;;10.98;88.25
36222;BME280;22266;52.340;4.962;2023-04-01T14:51:16;100145.03;;;10.93;87.54
36222;BME280;22266;52.340;4.962;2023-04-01T14:54:06;100147.28;;;10.96;88.16
36222;BME280;22266;52.340;4.962;2023-04-01T14:56:42;100155.19;;;10.91;87.06
36222;BME280;22266;52.340;4.962;2023-04-01T14:59:26;100160.00;;;10.82;87.65
36222;BME280;22266;52.340;4.962;2023-04-01T15:05:27;100162.47;;;10.77;87.66
36222;BME280;22266;52.340;4.962;2023-04-01T15:08:10;100163.50;;;10.76;87.66
36222;BME280;22266;52.340;4.962;2023-04-01T15:10:48;100182.59;;;10.68;87.94
36222;BME280;22266;52.340;4.962;2023-04-01T15:16:20;100188.00;;;10.61;87.79
36222;BME280;22266;52.340;4.962;2023-04-01T15:30:28;100221.31;;;10.67;86.96
36222;BME280;22266;52.340;4.962;2023-04-01T15:38:46;100233.13;;;10.59;86.22
36222;BME280;22266;52.340;4.962;2023-04-01T15:41:16;100237.69;;;10.59;87.28
36222;BME280;22266;52.340;4.962;2023-04-01T15:43:48;100242.03;;;10.67;87.00
36222;BME280;22266;52.340;4.962;2023-04-01T15:46:44;100254.03;;;10.71;86.53
36222;BME280;22266;52.340;4.962;2023-04-01T15:57:28;100264.78;;;10.64;85.60
36222;BME280;22266;52.340;4.962;2023-04-01T16:02:49;100281.34;;;10.61;85.07
36222;BME280;22266;52.340;4.962;2023-04-01T16:05:37;100289.88;;;10.58;85.62
36222;BME280;22266;52.340;4.962;2023-04-01T16:08:37;100295.66;;;10.55;85.41
36222;BME280;22266;52.340;4.962;2023-04-01T16:11:16;100296.69;;;10.47;84.25
36222;BME280;22266;52.340;4.962;2023-04-01T16:14:07;100309.72;;;10.44;84.84
36222;BME280;22266;52.340;4.962;2023-04-01T16:22:16;100316.97;;;10.36;85.25
36222;BME280;22266;52.340;4.962;2023-04-01T16:25:20;100321.50;;;10.36;84.93
36222;BME280;22266;52.340;4.962;2023-04-01T16:28:03;100329.81;;;10.34;84.77
36222;BME280;22266;52.340;4.962;2023-04-01T16:30:37;100337.06;;;10.34;85.12
36222;BME280;22266;52.340;4.962;2023-04-01T16:39:29;100347.59;;;10.35;84.91
36222;BME280;22266;52.340;4.962;2023-04-01T16:42:16;100355.25;;;10.32;84.94
36222;BME280;22266;52.340;4.962;2023-04-01T16:45:01;100363.09;;;10.27;84.67
36222;BME280;22266;52.340;4.962;2023-04-01T16:47:47;100374.44;;;10.22;84.63
36222;BME280;22266;52.340;4.962;2023-04-01T16:50:26;100379.63;;;10.17;84.75
36222;BME280;22266;52.340;4.962;2023-04-01T16:56:07;100393.22;;;10.02;85.54
36222;BME280;22266;52.340;4.962;2023-04-01T16:58:41;100402.06;;;9.96;85.59
36222;BME280;22266;52.340;4.962;2023-04-01T17:01:32;100394.59;;;9.91;86.45
36222;BME280;22266;52.340;4.962;2023-04-01T17:04:29;100414.25;;;9.92;86.85
36222;BME280;22266;52.340;4.962;2023-04-01T17:07:10;100413.84;;;9.88;86.25
36222;BME280;22266;52.340;4.962;2023-04-01T17:10:02;100419.63;;;9.85;87.15
36222;BME280;22266;52.340;4.962;2023-04-01T17:12:38;100424.78;;;9.87;86.95
36222;BME280;22266;52.340;4.962;2023-04-01T17:15:41;100432.41;;;9.83;87.02
36222;BME280;22266;52.340;4.962;2023-04-01T17:18:44;100443.16;;;9.83;87.36
36222;BME280;22266;52.340;4.962;2023-04-01T17:21:38;100454.34;;;9.80;87.13
36222;BME280;22266;52.340;4.962;2023-04-01T17:32:41;100480.41;;;9.86;86.34
36222;BME280;22266;52.340;4.962;2023-04-01T17:35:16;100475.44;;;9.83;86.33
36222;BME280;22266;52.340;4.962;2023-04-01T17:37:57;100496.91;;;9.77;86.05
36222;BME280;22266;52.340;4.962;2023-04-01T17:45:56;100518.81;;;9.74;85.88
36222;BME280;22266;52.340;4.962;2023-04-01T17:51:24;100526.88;;;9.74;85.50
36222;BME280;22266;52.340;4.962;2023-04-01T17:54:23;100526.66;;;9.75;85.13
36222;BME280;22266;52.340;4.962;2023-04-01T17:57:14;100545.47;;;9.75;85.38
36222;BME280;22266;52.340;4.962;2023-04-01T18:02:50;100547.69;;;9.65;84.94
36222;BME280;22266;52.340;4.962;2023-04-01T18:05:43;100555.75;;;9.65;84.89
36222;BME280;22266;52.340;4.962;2023-04-01T18:13:56;100572.16;;;9.49;83.89
36222;BME280;22266;52.340;4.962;2023-04-01T18:19:17;100601.31;;;9.52;84.09
36222;BME280;22266;52.340;4.962;2023-04-01T18:21:52;100595.31;;;9.50;83.39
36222;BME280;22266;52.340;4.962;2023-04-01T18:24:26;100607.09;;;9.49;84.10
36222;BME280;22266;52.340;4.962;2023-04-01T18:27:07;100609.91;;;9.40;82.61
36222;BME280;22266;52.340;4.962;2023-04-01T18:29:44;100616.28;;;9.39;83.68
36222;BME280;22266;52.340;4.962;2023-04-01T18:32:26;100619.41;;;9.43;83.58
36222;BME280;22266;52.340;4.962;2023-04-01T18:35:02;100640.06;;;9.43;83.84
36222;BME280;22266;52.340;4.962;2023-04-01T18:37:47;100645.56;;;9.34;82.57
36222;BME280;22266;52.340;4.962;2023-04-01T18:40:32;100655.41;;;9.27;82.28
36222;BME280;22266;52.340;4.962;2023-04-01T18:43:29;100657.84;;;9.22;82.08
36222;BME280;22266;52.340;4.962;2023-04-01T18:45:59;100661.00;;;9.26;82.42
36222;BME280;22266;52.340;4.962;2023-04-01T18:48:52;100669.31;;;9.31;82.74
36222;BME280;22266;52.340;4.962;2023-04-01T18:51:36;100674.09;;;9.35;82.86
36222;BME280;22266;52.340;4.962;2023-04-01T18:57:49;100695.47;;;9.07;81.92
36222;BME280;22266;52.340;4.962;2023-04-01T19:00:20;100700.94;;;8.99;81.91
36222;BME280;22266;52.340;4.962;2023-04-01T19:02:56;100703.19;;;8.96;82.75
36222;BME280;22266;52.340;4.962;2023-04-01T19:05:34;100721.53;;;8.92;81.92
36222;BME280;22266;52.340;4.962;2023-04-01T19:08:33;100715.44;;;8.83;82.09
36222;BME280;22266;52.340;4.962;2023-04-01T19:21:32;100744.66;;;8.78;81.69
36222;BME280;22266;52.340;4.962;2023-04-01T19:35:42;100779.09;;;8.89;81.30
36222;BME280;22266;52.340;4.962;2023-04-01T19:38:19;100786.88;;;8.84;82.04
36222;BME280;22266;52.340;4.962;2023-04-01T19:41:19;100794.53;;;8.73;81.07
36222;BME280;22266;52.340;4.962;2023-04-01T19:43:59;100801.56;;;8.59;80.13
36222;BME280;22266;52.340;4.962;2023-04-01T19:46:33;100807.00;;;8.51;80.80
36222;BME280;22266;52.340;4.962;2023-04-01T19:52:23;100819.75;;;8.49;80.90
36222;BME280;22266;52.340;4.962;2023-04-01T19:57:52;100833.59;;;8.37;80.92
36222;BME280;22266;52.340;4.962;2023-04-01T20:08:38;100857.38;;;8.40;82.24
36222;BME280;22266;52.340;4.962;2023-04-01T20:16:47;100873.81;;;8.37;81.22
36222;BME280;22266;52.340;4.962;2023-04-01T20:19:27;100864.41;;;8.41;81.45
36222;BME280;22266;52.340;4.962;2023-04-01T20:21:58;100874.50;;;8.39;80.83
36222;BME280;22266;52.340;4.962;2023-04-01T20:24:33;100888.88;;;8.38;80.81
36222;BME280;22266;52.340;4.962;2023-04-01T20:27:15;100904.19;;;8.30;80.29
36222;BME280;22266;52.340;4.962;2023-04-01T20:30:07;100897.25;;;8.12;79.54